Forside
METAR-TAF:

METAR-TAF

Lufthavne :

Albert Lea, Minnesota, USA

Breddekreds: 43-41N, længdekreds: 093-22W, højde: 383 m

Aktuelle vejr

Denne rapport blev lavet for 22 minutter siden, kl. 08:15 UTC
Vind 4 kt fra syd
Temperatur 24°C
Fugtighed 89%
Tryk 1010 hPa
Sigt: 16.1 km
skyfri

METAR: KAEL 090815Z AUTO 19004KT 10SM CLR 24/22 A2983 RMK AO2

Tid: 03:37 (08:37 UTC)


TAF: fraværende

Vejrobservationer og prognoser fra mere end 4000 lufthavne (METAR og TAF).

De gule og røde prikker repræsenterer de meteorologiske stationer.

Flyt musen over at se navnet på stationen.

Så klik over at se vejr observationer og prognoser.

At skifte det kort: Klik på de grønne knapper med et sort kors for at zoome ind; på den grønne knap med en bindestreg for at zoome ud; eller på de grønne pile for tilstødende kort.


METAR-TAF: